sensor_id;sensor_type;location;lat;lon;timestamp;temperature;humidity
41664;DHT22;27353;50.906;7.248;2022-08-21T00:00:43;15.70;99.90
41664;DHT22;27353;50.906;7.248;2022-08-21T00:03:10;15.70;99.90
41664;DHT22;27353;50.906;7.248;2022-08-21T00:05:40;15.70;99.90
41664;DHT22;27353;50.906;7.248;2022-08-21T00:08:06;15.60;99.90
41664;DHT22;27353;50.906;7.248;2022-08-21T00:10:32;15.60;99.90
41664;DHT22;27353;50.906;7.248;2022-08-21T00:12:57;15.60;99.90
41664;DHT22;27353;50.906;7.248;2022-08-21T00:15:27;15.60;99.90
41664;DHT22;27353;50.906;7.248;2022-08-21T00:17:55;15.60;99.90
41664;DHT22;27353;50.906;7.248;2022-08-21T00:20:22;15.50;99.90
41664;DHT22;27353;50.906;7.248;2022-08-21T00:22:48;15.40;99.90
41664;DHT22;27353;50.906;7.248;2022-08-21T00:25:15;15.40;99.90
41664;DHT22;27353;50.906;7.248;2022-08-21T00:27:41;15.40;99.90
41664;DHT22;27353;50.906;7.248;2022-08-21T00:30:09;15.40;99.90
41664;DHT22;27353;50.906;7.248;2022-08-21T00:32:37;15.40;99.90
41664;DHT22;27353;50.906;7.248;2022-08-21T00:35:10;15.40;99.90
41664;DHT22;27353;50.906;7.248;2022-08-21T00:37:39;15.40;99.90
41664;DHT22;27353;50.906;7.248;2022-08-21T00:40:07;15.30;99.90
41664;DHT22;27353;50.906;7.248;2022-08-21T00:42:33;15.30;99.90
41664;DHT22;27353;50.906;7.248;2022-08-21T00:44:59;15.30;99.90
41664;DHT22;27353;50.906;7.248;2022-08-21T00:47:25;15.30;99.90
41664;DHT22;27353;50.906;7.248;2022-08-21T00:49:50;15.30;99.90
41664;DHT22;27353;50.906;7.248;2022-08-21T00:52:21;15.20;99.90
41664;DHT22;27353;50.906;7.248;2022-08-21T00:54:48;15.20;99.90
41664;DHT22;27353;50.906;7.248;2022-08-21T00:57:20;15.10;99.90
41664;DHT22;27353;50.906;7.248;2022-08-21T00:59:49;15.10;99.90
41664;DHT22;27353;50.906;7.248;2022-08-21T01:02:17;15.10;99.90
41664;DHT22;27353;50.906;7.248;2022-08-21T01:04:43;15.10;99.90
41664;DHT22;27353;50.906;7.248;2022-08-21T01:07:09;15.00;99.90
41664;DHT22;27353;50.906;7.248;2022-08-21T01:09:35;15.00;99.90
41664;DHT22;27353;50.906;7.248;2022-08-21T01:12:02;15.00;99.90
41664;DHT22;27353;50.906;7.248;2022-08-21T01:14:29;15.00;99.90
41664;DHT22;27353;50.906;7.248;2022-08-21T01:16:56;15.00;99.90
41664;DHT22;27353;50.906;7.248;2022-08-21T01:19:24;15.00;99.90
41664;DHT22;27353;50.906;7.248;2022-08-21T01:21:50;15.00;99.90
41664;DHT22;27353;50.906;7.248;2022-08-21T01:24:16;14.90;99.90
41664;DHT22;27353;50.906;7.248;2022-08-21T01:26:43;14.90;99.90
41664;DHT22;27353;50.906;7.248;2022-08-21T01:31:53;14.90;99.90
41664;DHT22;27353;50.906;7.248;2022-08-21T01:34:19;14.80;99.90
41664;DHT22;27353;50.906;7.248;2022-08-21T01:36:46;14.80;99.90
41664;DHT22;27353;50.906;7.248;2022-08-21T01:39:12;14.80;99.90
41664;DHT22;27353;50.906;7.248;2022-08-21T01:41:38;14.80;99.90
41664;DHT22;27353;50.906;7.248;2022-08-21T01:44:04;14.80;99.90
41664;DHT22;27353;50.906;7.248;2022-08-21T01:46:30;14.70;99.90
41664;DHT22;27353;50.906;7.248;2022-08-21T01:48:56;14.70;99.90
41664;DHT22;27353;50.906;7.248;2022-08-21T01:51:22;14.70;99.90
41664;DHT22;27353;50.906;7.248;2022-08-21T01:53:48;14.70;99.90
41664;DHT22;27353;50.906;7.248;2022-08-21T01:56:15;14.70;99.90
41664;DHT22;27353;50.906;7.248;2022-08-21T01:58:42;14.70;99.90
41664;DHT22;27353;50.906;7.248;2022-08-21T02:01:09;14.70;99.90
41664;DHT22;27353;50.906;7.248;2022-08-21T02:03:35;14.70;99.90
41664;DHT22;27353;50.906;7.248;2022-08-21T02:06:01;14.70;99.90
41664;DHT22;27353;50.906;7.248;2022-08-21T02:08:28;14.60;99.90
41664;DHT22;27353;50.906;7.248;2022-08-21T02:10:54;14.60;99.90
41664;DHT22;27353;50.906;7.248;2022-08-21T02:13:20;14.60;99.90
41664;DHT22;27353;50.906;7.248;2022-08-21T02:15:45;14.60;99.90
41664;DHT22;27353;50.906;7.248;2022-08-21T02:18:11;14.50;99.90
41664;DHT22;27353;50.906;7.248;2022-08-21T02:20:40;14.50;99.90
41664;DHT22;27353;50.906;7.248;2022-08-21T02:23:07;14.50;99.90
41664;DHT22;27353;50.906;7.248;2022-08-21T02:25:34;14.50;99.90
41664;DHT22;27353;50.906;7.248;2022-08-21T02:28:03;14.50;99.90
41664;DHT22;27353;50.906;7.248;2022-08-21T02:30:33;14.50;99.90
41664;DHT22;27353;50.906;7.248;2022-08-21T02:32:59;14.50;99.90
41664;DHT22;27353;50.906;7.248;2022-08-21T02:35:25;14.50;99.90
41664;DHT22;27353;50.906;7.248;2022-08-21T02:37:52;14.40;99.90
41664;DHT22;27353;50.906;7.248;2022-08-21T02:40:20;14.50;99.90
41664;DHT22;27353;50.906;7.248;2022-08-21T02:42:47;14.40;99.90
41664;DHT22;27353;50.906;7.248;2022-08-21T02:45:13;14.40;99.90
41664;DHT22;27353;50.906;7.248;2022-08-21T02:47:40;14.30;99.90
41664;DHT22;27353;50.906;7.248;2022-08-21T02:50:06;14.30;99.90
41664;DHT22;27353;50.906;7.248;2022-08-21T02:52:33;14.20;99.90
41664;DHT22;27353;50.906;7.248;2022-08-21T02:55:00;14.20;99.90
41664;DHT22;27353;50.906;7.248;2022-08-21T02:57:25;14.20;99.90
41664;DHT22;27353;50.906;7.248;2022-08-21T02:59:51;14.20;99.90
41664;DHT22;27353;50.906;7.248;2022-08-21T03:02:17;14.20;99.90
41664;DHT22;27353;50.906;7.248;2022-08-21T03:04:42;14.10;99.90
41664;DHT22;27353;50.906;7.248;2022-08-21T03:07:08;14.10;99.90
41664;DHT22;27353;50.906;7.248;2022-08-21T03:09:33;14.10;99.90
41664;DHT22;27353;50.906;7.248;2022-08-21T03:12:02;14.10;99.90
41664;DHT22;27353;50.906;7.248;2022-08-21T03:14:29;14.10;99.90
41664;DHT22;27353;50.906;7.248;2022-08-21T03:16:54;14.10;99.90
41664;DHT22;27353;50.906;7.248;2022-08-21T03:19:20;14.10;99.90
41664;DHT22;27353;50.906;7.248;2022-08-21T03:21:46;14.00;99.90
41664;DHT22;27353;50.906;7.248;2022-08-21T03:24:12;14.00;99.90
41664;DHT22;27353;50.906;7.248;2022-08-21T03:26:37;14.00;99.90
41664;DHT22;27353;50.906;7.248;2022-08-21T03:29:03;13.90;99.90
41664;DHT22;27353;50.906;7.248;2022-08-21T03:31:28;13.90;99.90
41664;DHT22;27353;50.906;7.248;2022-08-21T03:33:57;13.90;99.90
41664;DHT22;27353;50.906;7.248;2022-08-21T03:36:22;13.90;99.90
41664;DHT22;27353;50.906;7.248;2022-08-21T03:38:48;13.90;99.90
41664;DHT22;27353;50.906;7.248;2022-08-21T03:41:14;13.90;99.90
41664;DHT22;27353;50.906;7.248;2022-08-21T03:43:39;13.90;99.90
41664;DHT22;27353;50.906;7.248;2022-08-21T03:46:06;13.90;99.90
41664;DHT22;27353;50.906;7.248;2022-08-21T03:48:33;13.90;99.90
41664;DHT22;27353;50.906;7.248;2022-08-21T03:50:59;13.90;99.90
41664;DHT22;27353;50.906;7.248;2022-08-21T03:53:25;13.90;99.90
41664;DHT22;27353;50.906;7.248;2022-08-21T03:55:51;13.80;99.90
41664;DHT22;27353;50.906;7.248;2022-08-21T03:58:21;13.80;99.90
41664;DHT22;27353;50.906;7.248;2022-08-21T04:00:50;13.80;99.90
41664;DHT22;27353;50.906;7.248;2022-08-21T04:03:16;13.80;99.90
41664;DHT22;27353;50.906;7.248;2022-08-21T04:05:43;13.80;99.90
41664;DHT22;27353;50.906;7.248;2022-08-21T04:08:11;13.80;99.90
41664;DHT22;27353;50.906;7.248;2022-08-21T04:10:38;13.80;99.90
41664;DHT22;27353;50.906;7.248;2022-08-21T04:13:05;13.80;99.90
41664;DHT22;27353;50.906;7.248;2022-08-21T04:15:31;13.80;99.90
41664;DHT22;27353;50.906;7.248;2022-08-21T04:17:56;13.70;99.90
41664;DHT22;27353;50.906;7.248;2022-08-21T04:20:23;13.80;99.90
41664;DHT22;27353;50.906;7.248;2022-08-21T04:22:49;13.80;99.90
41664;DHT22;27353;50.906;7.248;2022-08-21T04:25:16;13.70;99.90
41664;DHT22;27353;50.906;7.248;2022-08-21T04:27:44;13.80;99.90
41664;DHT22;27353;50.906;7.248;2022-08-21T04:30:10;13.70;99.90
41664;DHT22;27353;50.906;7.248;2022-08-21T04:32:37;13.70;99.90
41664;DHT22;27353;50.906;7.248;2022-08-21T04:35:08;13.70;99.90
41664;DHT22;27353;50.906;7.248;2022-08-21T04:37:35;13.70;99.90
41664;DHT22;27353;50.906;7.248;2022-08-21T04:40:01;13.70;99.90
41664;DHT22;27353;50.906;7.248;2022-08-21T04:42:27;13.60;99.90
41664;DHT22;27353;50.906;7.248;2022-08-21T04:44:54;13.60;99.90
41664;DHT22;27353;50.906;7.248;2022-08-21T04:47:20;13.60;99.90
41664;DHT22;27353;50.906;7.248;2022-08-21T04:49:47;13.60;99.90
41664;DHT22;27353;50.906;7.248;2022-08-21T04:52:15;13.60;99.90
41664;DHT22;27353;50.906;7.248;2022-08-21T04:54:43;13.60;99.90
41664;DHT22;27353;50.906;7.248;2022-08-21T04:57:10;13.60;99.90
41664;DHT22;27353;50.906;7.248;2022-08-21T04:59:39;13.60;99.90
41664;DHT22;27353;50.906;7.248;2022-08-21T05:02:07;13.60;99.90
41664;DHT22;27353;50.906;7.248;2022-08-21T05:04:41;13.70;99.90
41664;DHT22;27353;50.906;7.248;2022-08-21T05:07:14;13.70;99.90
41664;DHT22;27353;50.906;7.248;2022-08-21T05:09:41;13.70;99.90
41664;DHT22;27353;50.906;7.248;2022-08-21T05:12:07;13.80;99.90
41664;DHT22;27353;50.906;7.248;2022-08-21T05:14:32;13.80;99.90
41664;DHT22;27353;50.906;7.248;2022-08-21T05:16:58;13.90;99.90
41664;DHT22;27353;50.906;7.248;2022-08-21T05:19:24;14.00;99.90
41664;DHT22;27353;50.906;7.248;2022-08-21T05:21:50;14.10;99.90
41664;DHT22;27353;50.906;7.248;2022-08-21T05:24:16;14.40;99.90
41664;DHT22;27353;50.906;7.248;2022-08-21T05:26:43;14.70;99.90
41664;DHT22;27353;50.906;7.248;2022-08-21T05:29:10;15.00;99.90
41664;DHT22;27353;50.906;7.248;2022-08-21T05:31:37;15.40;99.90
41664;DHT22;27353;50.906;7.248;2022-08-21T05:34:03;15.80;99.90
41664;DHT22;27353;50.906;7.248;2022-08-21T05:36:29;16.20;99.90
41664;DHT22;27353;50.906;7.248;2022-08-21T05:38:55;16.50;99.90
41664;DHT22;27353;50.906;7.248;2022-08-21T05:41:20;16.80;99.90
41664;DHT22;27353;50.906;7.248;2022-08-21T05:43:46;17.40;99.90
41664;DHT22;27353;50.906;7.248;2022-08-21T05:46:11;17.80;99.90
41664;DHT22;27353;50.906;7.248;2022-08-21T05:48:37;18.00;99.90
41664;DHT22;27353;50.906;7.248;2022-08-21T05:51:08;18.30;99.90
41664;DHT22;27353;50.906;7.248;2022-08-21T05:53:35;18.50;99.90
41664;DHT22;27353;50.906;7.248;2022-08-21T05:56:01;18.70;99.90
41664;DHT22;27353;50.906;7.248;2022-08-21T05:58:30;19.10;99.90
41664;DHT22;27353;50.906;7.248;2022-08-21T06:00:56;19.20;99.90
41664;DHT22;27353;50.906;7.248;2022-08-21T06:03:26;19.10;99.90
41664;DHT22;27353;50.906;7.248;2022-08-21T06:05:53;19.40;99.90
41664;DHT22;27353;50.906;7.248;2022-08-21T06:08:20;19.30;99.90
41664;DHT22;27353;50.906;7.248;2022-08-21T06:10:48;19.60;99.90
41664;DHT22;27353;50.906;7.248;2022-08-21T06:13:14;20.10;99.90
41664;DHT22;27353;50.906;7.248;2022-08-21T06:15:40;20.70;99.90
41664;DHT22;27353;50.906;7.248;2022-08-21T06:18:06;21.10;99.90
41664;DHT22;27353;50.906;7.248;2022-08-21T06:20:32;21.30;99.90
41664;DHT22;27353;50.906;7.248;2022-08-21T06:22:58;21.20;99.90
41664;DHT22;27353;50.906;7.248;2022-08-21T06:25:24;21.40;99.90
41664;DHT22;27353;50.906;7.248;2022-08-21T06:27:50;21.70;99.90
41664;DHT22;27353;50.906;7.248;2022-08-21T06:30:16;21.90;99.90
41664;DHT22;27353;50.906;7.248;2022-08-21T06:32:42;22.20;99.90
41664;DHT22;27353;50.906;7.248;2022-08-21T06:35:08;22.80;99.90
41664;DHT22;27353;50.906;7.248;2022-08-21T06:37:34;23.60;99.90
41664;DHT22;27353;50.906;7.248;2022-08-21T06:40:00;23.70;99.90
41664;DHT22;27353;50.906;7.248;2022-08-21T06:42:26;24.00;99.90
41664;DHT22;27353;50.906;7.248;2022-08-21T06:44:53;24.40;99.90
41664;DHT22;27353;50.906;7.248;2022-08-21T06:47:19;24.00;99.90
41664;DHT22;27353;50.906;7.248;2022-08-21T06:49:44;23.90;99.90
41664;DHT22;27353;50.906;7.248;2022-08-21T06:52:11;23.90;99.90
41664;DHT22;27353;50.906;7.248;2022-08-21T06:54:37;24.50;99.90
41664;DHT22;27353;50.906;7.248;2022-08-21T06:57:03;25.50;97.60
41664;DHT22;27353;50.906;7.248;2022-08-21T06:59:29;24.70;97.60
41664;DHT22;27353;50.906;7.248;2022-08-21T07:01:54;24.60;98.10
41664;DHT22;27353;50.906;7.248;2022-08-21T07:04:20;25.00;96.50
41664;DHT22;27353;50.906;7.248;2022-08-21T07:06:46;25.10;97.20
41664;DHT22;27353;50.906;7.248;2022-08-21T07:09:11;25.40;96.80
41664;DHT22;27353;50.906;7.248;2022-08-21T07:11:37;26.50;95.10
41664;DHT22;27353;50.906;7.248;2022-08-21T07:14:03;26.50;94.10
41664;DHT22;27353;50.906;7.248;2022-08-21T07:16:29;27.20;92.30
41664;DHT22;27353;50.906;7.248;2022-08-21T07:18:55;26.70;92.90
41664;DHT22;27353;50.906;7.248;2022-08-21T07:21:21;26.50;93.50
41664;DHT22;27353;50.906;7.248;2022-08-21T07:23:49;27.10;92.20
41664;DHT22;27353;50.906;7.248;2022-08-21T07:26:18;27.80;90.80
41664;DHT22;27353;50.906;7.248;2022-08-21T07:28:45;27.90;91.40
41664;DHT22;27353;50.906;7.248;2022-08-21T07:31:13;27.90;91.00
41664;DHT22;27353;50.906;7.248;2022-08-21T07:33:40;28.00;89.20
41664;DHT22;27353;50.906;7.248;2022-08-21T07:36:06;28.20;89.60
41664;DHT22;27353;50.906;7.248;2022-08-21T07:38:32;27.90;89.00
41664;DHT22;27353;50.906;7.248;2022-08-21T07:40:59;28.60;87.00
41664;DHT22;27353;50.906;7.248;2022-08-21T07:43:26;28.60;85.80
41664;DHT22;27353;50.906;7.248;2022-08-21T07:45:52;26.60;89.20
41664;DHT22;27353;50.906;7.248;2022-08-21T07:48:20;27.20;90.30
41664;DHT22;27353;50.906;7.248;2022-08-21T07:50:46;28.60;87.50
41664;DHT22;27353;50.906;7.248;2022-08-21T07:53:11;29.30;85.40
41664;DHT22;27353;50.906;7.248;2022-08-21T07:55:37;29.70;82.20
41664;DHT22;27353;50.906;7.248;2022-08-21T07:58:03;30.10;82.20
41664;DHT22;27353;50.906;7.248;2022-08-21T08:00:30;30.40;79.50
41664;DHT22;27353;50.906;7.248;2022-08-21T08:02:56;30.20;78.70
41664;DHT22;27353;50.906;7.248;2022-08-21T08:05:28;30.40;78.30
41664;DHT22;27353;50.906;7.248;2022-08-21T08:07:55;30.30;79.80
41664;DHT22;27353;50.906;7.248;2022-08-21T08:10:21;30.80;77.40
41664;DHT22;27353;50.906;7.248;2022-08-21T08:12:48;30.50;77.20
41664;DHT22;27353;50.906;7.248;2022-08-21T08:15:20;30.50;77.90
41664;DHT22;27353;50.906;7.248;2022-08-21T08:17:45;31.10;75.70
41664;DHT22;27353;50.906;7.248;2022-08-21T08:20:13;31.80;74.80
41664;DHT22;27353;50.906;7.248;2022-08-21T08:22:39;32.30;73.90
41664;DHT22;27353;50.906;7.248;2022-08-21T08:25:07;32.70;71.50
41664;DHT22;27353;50.906;7.248;2022-08-21T08:27:33;33.30;69.10
41664;DHT22;27353;50.906;7.248;2022-08-21T08:29:59;33.00;68.30
41664;DHT22;27353;50.906;7.248;2022-08-21T08:32:25;32.70;67.60
41664;DHT22;27353;50.906;7.248;2022-08-21T08:34:51;32.60;67.70
41664;DHT22;27353;50.906;7.248;2022-08-21T08:37:18;32.20;68.30
41664;DHT22;27353;50.906;7.248;2022-08-21T08:39:44;31.80;66.50
41664;DHT22;27353;50.906;7.248;2022-08-21T08:42:27;32.30;68.20
41664;DHT22;27353;50.906;7.248;2022-08-21T08:44:59;32.70;66.70
41664;DHT22;27353;50.906;7.248;2022-08-21T08:47:26;33.60;66.80
41664;DHT22;27353;50.906;7.248;2022-08-21T08:50:18;33.90;63.70
41664;DHT22;27353;50.906;7.248;2022-08-21T08:53:00;33.90;60.70
41664;DHT22;27353;50.906;7.248;2022-08-21T08:55:41;34.00;63.40
41664;DHT22;27353;50.906;7.248;2022-08-21T08:58:10;35.60;61.00
41664;DHT22;27353;50.906;7.248;2022-08-21T09:00:38;34.10;61.50
41664;DHT22;27353;50.906;7.248;2022-08-21T09:03:04;33.90;63.20
41664;DHT22;27353;50.906;7.248;2022-08-21T09:11:29;33.50;61.30
41664;DHT22;27353;50.906;7.248;2022-08-21T09:20:12;32.50;63.30
41664;DHT22;27353;50.906;7.248;2022-08-21T09:22:47;33.00;62.30
41664;DHT22;27353;50.906;7.248;2022-08-21T09:25:19;32.40;62.50
41664;DHT22;27353;50.906;7.248;2022-08-21T09:27:46;31.00;64.60
41664;DHT22;27353;50.906;7.248;2022-08-21T09:30:12;31.30;64.00
41664;DHT22;27353;50.906;7.248;2022-08-21T09:32:39;32.30;61.40
41664;DHT22;27353;50.906;7.248;2022-08-21T09:43:03;32.30;62.90
41664;DHT22;27353;50.906;7.248;2022-08-21T09:45:30;32.00;61.10
41664;DHT22;27353;50.906;7.248;2022-08-21T09:47:56;31.40;62.40
41664;DHT22;27353;50.906;7.248;2022-08-21T09:50:26;31.70;62.10
41664;DHT22;27353;50.906;7.248;2022-08-21T09:52:57;31.80;64.80
41664;DHT22;27353;50.906;7.248;2022-08-21T09:55:34;32.20;62.40
41664;DHT22;27353;50.906;7.248;2022-08-21T09:58:30;31.40;62.70
41664;DHT22;27353;50.906;7.248;2022-08-21T10:00:59;30.90;64.00
41664;DHT22;27353;50.906;7.248;2022-08-21T10:03:25;30.80;65.30
41664;DHT22;27353;50.906;7.248;2022-08-21T10:05:56;31.50;63.70
41664;DHT22;27353;50.906;7.248;2022-08-21T10:08:22;32.10;63.00
41664;DHT22;27353;50.906;7.248;2022-08-21T10:10:55;31.50;60.90
41664;DHT22;27353;50.906;7.248;2022-08-21T10:18:40;31.20;62.50
41664;DHT22;27353;50.906;7.248;2022-08-21T10:24:25;29.50;66.00
41664;DHT22;27353;50.906;7.248;2022-08-21T10:27:11;30.00;65.10
41664;DHT22;27353;50.906;7.248;2022-08-21T10:29:55;29.50;65.10
41664;DHT22;27353;50.906;7.248;2022-08-21T10:35:23;30.30;65.30
41664;DHT22;27353;50.906;7.248;2022-08-21T10:43:51;29.80;67.10
41664;DHT22;27353;50.906;7.248;2022-08-21T10:52:31;30.20;64.30
41664;DHT22;27353;50.906;7.248;2022-08-21T10:55:19;30.00;68.70
41664;DHT22;27353;50.906;7.248;2022-08-21T10:57:55;30.50;63.50
41664;DHT22;27353;50.906;7.248;2022-08-21T11:00:26;30.90;65.40
41664;DHT22;27353;50.906;7.248;2022-08-21T11:02:55;30.70;65.00
41664;DHT22;27353;50.906;7.248;2022-08-21T11:05:42;30.80;64.70
41664;DHT22;27353;50.906;7.248;2022-08-21T11:08:27;31.30;64.60
41664;DHT22;27353;50.906;7.248;2022-08-21T11:13:47;32.00;61.80
41664;DHT22;27353;50.906;7.248;2022-08-21T11:16:36;31.80;62.30
41664;DHT22;27353;50.906;7.248;2022-08-21T11:22:28;30.90;61.20
41664;DHT22;27353;50.906;7.248;2022-08-21T11:30:04;28.40;65.20
41664;DHT22;27353;50.906;7.248;2022-08-21T11:32:46;28.50;69.20
41664;DHT22;27353;50.906;7.248;2022-08-21T11:35:39;29.50;64.90
41664;DHT22;27353;50.906;7.248;2022-08-21T11:38:43;29.80;65.00
41664;DHT22;27353;50.906;7.248;2022-08-21T11:44:07;30.10;63.40
41664;DHT22;27353;50.906;7.248;2022-08-21T11:52:07;31.40;59.70
41664;DHT22;27353;50.906;7.248;2022-08-21T11:54:40;31.70;63.30
41664;DHT22;27353;50.906;7.248;2022-08-21T11:57:39;31.80;59.40
41664;DHT22;27353;50.906;7.248;2022-08-21T12:00:14;30.90;58.20
41664;DHT22;27353;50.906;7.248;2022-08-21T12:02:45;30.60;59.20
41664;DHT22;27353;50.906;7.248;2022-08-21T12:05:29;30.70;59.20
41664;DHT22;27353;50.906;7.248;2022-08-21T12:08:13;30.60;59.80
41664;DHT22;27353;50.906;7.248;2022-08-21T12:10:45;30.10;61.80
41664;DHT22;27353;50.906;7.248;2022-08-21T12:13:26;30.00;61.30
41664;DHT22;27353;50.906;7.248;2022-08-21T12:15:52;30.30;63.70
41664;DHT22;27353;50.906;7.248;2022-08-21T12:18:27;30.70;59.90
41664;DHT22;27353;50.906;7.248;2022-08-21T12:21:04;30.40;61.10
41664;DHT22;27353;50.906;7.248;2022-08-21T12:23:46;31.20;61.30
41664;DHT22;27353;50.906;7.248;2022-08-21T12:28:44;31.40;59.60
41664;DHT22;27353;50.906;7.248;2022-08-21T12:31:22;31.60;58.50
41664;DHT22;27353;50.906;7.248;2022-08-21T12:33:56;31.40;59.00
41664;DHT22;27353;50.906;7.248;2022-08-21T12:36:28;31.60;59.30
41664;DHT22;27353;50.906;7.248;2022-08-21T12:39:02;31.30;58.70
41664;DHT22;27353;50.906;7.248;2022-08-21T12:41:45;30.60;59.90
41664;DHT22;27353;50.906;7.248;2022-08-21T12:44:15;30.80;60.70
41664;DHT22;27353;50.906;7.248;2022-08-21T12:46:52;30.60;60.00
41664;DHT22;27353;50.906;7.248;2022-08-21T12:51:56;29.90;60.10
41664;DHT22;27353;50.906;7.248;2022-08-21T12:54:28;29.70;60.50
41664;DHT22;27353;50.906;7.248;2022-08-21T12:57:00;29.80;64.00
41664;DHT22;27353;50.906;7.248;2022-08-21T12:59:26;29.70;61.10
41664;DHT22;27353;50.906;7.248;2022-08-21T13:01:52;29.10;61.10
41664;DHT22;27353;50.906;7.248;2022-08-21T13:04:25;28.80;63.80
41664;DHT22;27353;50.906;7.248;2022-08-21T13:06:54;29.10;62.70
41664;DHT22;27353;50.906;7.248;2022-08-21T13:09:27;29.70;63.00
41664;DHT22;27353;50.906;7.248;2022-08-21T13:11:54;30.40;64.90
41664;DHT22;27353;50.906;7.248;2022-08-21T13:14:31;30.60;60.50
41664;DHT22;27353;50.906;7.248;2022-08-21T13:17:00;30.30;60.50
41664;DHT22;27353;50.906;7.248;2022-08-21T13:19:28;30.70;59.70
41664;DHT22;27353;50.906;7.248;2022-08-21T13:21:55;30.70;58.90
41664;DHT22;27353;50.906;7.248;2022-08-21T13:24:24;30.60;59.20
41664;DHT22;27353;50.906;7.248;2022-08-21T13:26:52;30.60;58.40
41664;DHT22;27353;50.906;7.248;2022-08-21T13:29:21;30.40;58.60
41664;DHT22;27353;50.906;7.248;2022-08-21T13:31:53;30.30;59.80
41664;DHT22;27353;50.906;7.248;2022-08-21T13:34:23;30.00;57.90
41664;DHT22;27353;50.906;7.248;2022-08-21T13:36:54;29.20;60.60
41664;DHT22;27353;50.906;7.248;2022-08-21T13:39:21;29.20;60.40
41664;DHT22;27353;50.906;7.248;2022-08-21T13:41:49;29.20;59.50
41664;DHT22;27353;50.906;7.248;2022-08-21T13:44:18;29.30;60.40
41664;DHT22;27353;50.906;7.248;2022-08-21T13:46:45;29.30;60.70
41664;DHT22;27353;50.906;7.248;2022-08-21T13:49:15;29.30;59.20
41664;DHT22;27353;50.906;7.248;2022-08-21T13:51:41;29.10;62.60
41664;DHT22;27353;50.906;7.248;2022-08-21T13:54:27;29.50;62.50
41664;DHT22;27353;50.906;7.248;2022-08-21T13:56:54;29.30;59.80
41664;DHT22;27353;50.906;7.248;2022-08-21T13:59:32;29.50;63.30
41664;DHT22;27353;50.906;7.248;2022-08-21T14:02:10;29.60;63.40
41664;DHT22;27353;50.906;7.248;2022-08-21T14:04:43;29.80;60.20
41664;DHT22;27353;50.906;7.248;2022-08-21T14:07:18;30.00;60.70
41664;DHT22;27353;50.906;7.248;2022-08-21T14:09:45;29.70;60.30
41664;DHT22;27353;50.906;7.248;2022-08-21T14:12:19;29.90;60.30
41664;DHT22;27353;50.906;7.248;2022-08-21T14:14:48;29.60;61.30
41664;DHT22;27353;50.906;7.248;2022-08-21T14:17:29;29.60;61.00
41664;DHT22;27353;50.906;7.248;2022-08-21T14:19:56;29.50;62.30
41664;DHT22;27353;50.906;7.248;2022-08-21T14:25:27;29.70;59.00
41664;DHT22;27353;50.906;7.248;2022-08-21T14:28:38;29.40;60.10
41664;DHT22;27353;50.906;7.248;2022-08-21T14:30:45;29.30;62.70
41664;DHT22;27353;50.906;7.248;2022-08-21T14:33:13;29.00;62.40
41664;DHT22;27353;50.906;7.248;2022-08-21T14:35:40;29.10;63.50
41664;DHT22;27353;50.906;7.248;2022-08-21T14:38:14;29.10;63.40
41664;DHT22;27353;50.906;7.248;2022-08-21T14:40:41;29.40;62.60
41664;DHT22;27353;50.906;7.248;2022-08-21T14:43:07;29.10;63.10
41664;DHT22;27353;50.906;7.248;2022-08-21T14:45:34;28.90;61.40
41664;DHT22;27353;50.906;7.248;2022-08-21T14:48:02;28.90;62.80
41664;DHT22;27353;50.906;7.248;2022-08-21T14:50:28;28.90;61.80
41664;DHT22;27353;50.906;7.248;2022-08-21T14:52:54;28.90;63.70
41664;DHT22;27353;50.906;7.248;2022-08-21T14:55:20;28.70;62.70
41664;DHT22;27353;50.906;7.248;2022-08-21T14:57:50;28.40;65.80
41664;DHT22;27353;50.906;7.248;2022-08-21T15:00:21;28.20;64.00
41664;DHT22;27353;50.906;7.248;2022-08-21T15:02:48;28.10;65.50
41664;DHT22;27353;50.906;7.248;2022-08-21T15:05:15;27.70;67.50
41664;DHT22;27353;50.906;7.248;2022-08-21T15:07:41;27.60;68.80
41664;DHT22;27353;50.906;7.248;2022-08-21T15:10:07;27.40;68.90
41664;DHT22;27353;50.906;7.248;2022-08-21T15:12:33;27.20;68.60
41664;DHT22;27353;50.906;7.248;2022-08-21T15:14:58;27.00;69.80
41664;DHT22;27353;50.906;7.248;2022-08-21T15:17:24;27.00;67.40
41664;DHT22;27353;50.906;7.248;2022-08-21T15:19:50;26.90;69.20
41664;DHT22;27353;50.906;7.248;2022-08-21T15:22:16;26.90;71.00
41664;DHT22;27353;50.906;7.248;2022-08-21T15:24:42;26.80;72.20
41664;DHT22;27353;50.906;7.248;2022-08-21T15:27:09;26.90;72.30
41664;DHT22;27353;50.906;7.248;2022-08-21T15:29:36;27.00;69.90
41664;DHT22;27353;50.906;7.248;2022-08-21T15:32:23;27.00;70.50
41664;DHT22;27353;50.906;7.248;2022-08-21T15:34:52;27.00;71.40
41664;DHT22;27353;50.906;7.248;2022-08-21T15:37:19;27.00;72.20
41664;DHT22;27353;50.906;7.248;2022-08-21T15:39:44;27.00;72.50
41664;DHT22;27353;50.906;7.248;2022-08-21T15:42:11;27.00;72.40
41664;DHT22;27353;50.906;7.248;2022-08-21T15:44:41;27.00;71.40
41664;DHT22;27353;50.906;7.248;2022-08-21T15:47:13;27.00;72.00
41664;DHT22;27353;50.906;7.248;2022-08-21T15:49:40;27.00;69.80
41664;DHT22;27353;50.906;7.248;2022-08-21T15:52:07;26.90;72.10
41664;DHT22;27353;50.906;7.248;2022-08-21T15:54:34;26.80;71.20
41664;DHT22;27353;50.906;7.248;2022-08-21T15:56:59;26.80;72.80
41664;DHT22;27353;50.906;7.248;2022-08-21T15:59:25;26.80;72.20
41664;DHT22;27353;50.906;7.248;2022-08-21T16:01:52;26.70;73.10
41664;DHT22;27353;50.906;7.248;2022-08-21T16:04:27;26.60;70.80
41664;DHT22;27353;50.906;7.248;2022-08-21T16:06:53;26.60;72.70
41664;DHT22;27353;50.906;7.248;2022-08-21T16:09:19;26.60;71.40
41664;DHT22;27353;50.906;7.248;2022-08-21T16:11:45;26.60;72.30
41664;DHT22;27353;50.906;7.248;2022-08-21T16:14:14;26.60;72.60
41664;DHT22;27353;50.906;7.248;2022-08-21T16:16:40;26.50;73.00
41664;DHT22;27353;50.906;7.248;2022-08-21T16:19:06;26.50;72.50
41664;DHT22;27353;50.906;7.248;2022-08-21T16:21:33;26.40;72.70
41664;DHT22;27353;50.906;7.248;2022-08-21T16:23:59;26.40;72.50
41664;DHT22;27353;50.906;7.248;2022-08-21T16:26:25;26.30;71.50
41664;DHT22;27353;50.906;7.248;2022-08-21T16:28:54;26.30;71.80
41664;DHT22;27353;50.906;7.248;2022-08-21T16:31:22;26.30;73.00
41664;DHT22;27353;50.906;7.248;2022-08-21T16:33:51;26.20;73.90
41664;DHT22;27353;50.906;7.248;2022-08-21T16:36:18;26.20;71.40
41664;DHT22;27353;50.906;7.248;2022-08-21T16:38:44;26.20;71.70
41664;DHT22;27353;50.906;7.248;2022-08-21T16:41:11;26.20;73.10
41664;DHT22;27353;50.906;7.248;2022-08-21T16:43:39;26.10;71.40
41664;DHT22;27353;50.906;7.248;2022-08-21T16:46:07;26.20;72.30
41664;DHT22;27353;50.906;7.248;2022-08-21T16:48:34;26.30;71.00
41664;DHT22;27353;50.906;7.248;2022-08-21T16:50:59;26.30;71.30
41664;DHT22;27353;50.906;7.248;2022-08-21T16:53:25;26.40;73.70